Terminal Aerodrome Forecast
Issued by NWS Cleveland, OH

Home | Current Version | Previous Version | Text Only | Print | Product List | Glossary Off
Versions: 1 2 3 4 5 6 7 8 9 10 11 12 13 14 15 16 17 18 19 20 21 22 23 24 25 26 27 28

617
FTUS41 KCLE 211124
TAFCLE
TAF
KCLE 211124Z 2112/2218 16010KT P6SM OVC150
     FM211500 18010KT P6SM BKN070
     FM212100 20010KT P6SM OVC050
      TEMPO 2121/2201 6SM -SHRA
     FM220400 20005KT P6SM OVC025
     FM220900 18005KT 3SM BR OVC008=

USA.gov is the U.S. government's official web portal to all federal, state and local government web resources and services.